Estación Meteorológica Peña el Pijo (Robertgarden) [ 10/16/18 14:57:31 CEST ]

Fecha Hora Presion(HPa) Temp (°C) Humedad % Rocio (°C) Viento ( m/s) Direccion Lluvia 1Hora(mm) Lluvia 24H(mm) LLuvia Total(mm)
2018-Oct-03 01:01:39 1014.800 9.5 74 5.1         356.38
2018-Oct-03 02:01:40 1014.700 8.5 72 3.7         356.38
2018-Oct-03 03:03:12 1014.700 7.2 74 2.9         356.38
2018-Oct-03 04:01:37 1014.400 7.0 73 2.5         356.38
2018-Oct-03 05:01:47 1014.000 6.8 72 2.1         356.38
2018-Oct-03 06:01:33 1013.800 5.5 73 1.0         356.38
2018-Oct-03 07:01:27 1014.200 5.3 74 1.0         356.38
2018-Oct-03 08:01:37 1014.500 4.6 75 0.6         356.38
2018-Oct-03 09:01:46 1014.900 5.1 76 1.2         356.38
2018-Oct-03 10:01:33 1015.300 13.9 65 7.4         356.38
2018-Oct-03 11:01:36 1015.500 20.3 40 6.3         356.38
2018-Oct-03 12:01:18 1015.100 24.9 28 5.0         356.38
2018-Oct-03 13:02:02 1014.900 26.2 27 5.5         356.38
2018-Oct-03 14:01:57 1014.600 26.3 27 5.6         356.38
2018-Oct-03 15:01:45 1013.900 26.4 26 5.1 2.6 SSW     356.38
2018-Oct-03 16:01:44 1013.400 27.1 27 6.3         356.38
2018-Oct-03 17:01:37 1013.200 26.9 26 5.6         356.38
2018-Oct-03 18:01:42 1013.300 24.9 29 5.6         356.38
2018-Oct-03 19:01:47 1013.500 21.1 33 4.1         356.38
2018-Oct-03 20:01:55 1014.000 18.4 38 3.8         356.38
2018-Oct-03 21:01:36 1014.200 14.4 49 3.8         356.38
2018-Oct-03 22:01:44 1014.600 11.8 58 3.8         356.38
2018-Oct-03 23:01:50 1014.500 10.8 61 3.5         356.38

Temperatura Máxima:27°    Temperatura Mínima:
Presión Máxima:1015.500 Hpa    Presión Mínima:1013.200 Hpa


Volver